熊本 の空港の天気 - METARとTAF

熊本空港 ( RJFT / KMJ ) - 熊本県益城町
飛行場実況気象(Metar)
観測時間06/02 06:10 JST (06/01 21:10 UTC)
風向・風速南南西 2m/s
視程4000m
天気現象もや
少しの雲 雲底高度 150m
全天の8割程度の雲 雲底高度 300m
全天の8割程度の雲 雲底高度 460m
気温19℃
湿度100%
気圧1011hPa
METARRJFT 012110Z 20003KT 150V250 4000 BR FEW005 BKN010 BKN015 19/19 Q1011 RMK 1ST005 5CU010 7CU015 A2986
過去の天気等 Google飛行場航空写真 Wunderground天気予報

過去48時間のMETAR

飛行場予報(TAF)
発表時間: 6/02 05:41 JST (6/01 20:41 UTC)
予報対象時間: 2日5時 JST ~ 3日9時 JST
風向・風速南西 4m/s
視程10km以上
少しの雲 雲底高度 1220m
2日5時 JST ~ 2日7時 JST に一時的に
視程4000m
天気現象もや
少しの雲 雲底高度 150m
全天の8割程度の雲 雲底高度 240m
全天の8割程度の雲 雲底高度 460m
2日21時 JST ~ 2日24時 JST に徐々に
風向・風速東南東 2m/s
3日6時 JST ~ 3日9時 JST に徐々に
風向・風速南南西 3m/s
TAF AMD RJFT 012041Z 0120/0300 23008KT 9999 FEW040
TEMPO 0120/0122 4000 BR FEW005 BKN008 BKN015
BECMG 0212/0215 12003KT
BECMG 0221/0300 20005KT
日本の空港のMETAR・TAFへのリンク

RJTT 東京国際空港
RJAA 新東京国際空港
RJBB 関西国際空港
RJOO 大阪空港
RJGG 中部国際空港
RJCC 新千歳空港
RJFF 福岡空港
ROAH 那覇空港


RJEC 旭川空港
RJCH 函館空港
RJCK 釧路空港
RJCM 女満別空港
RJCB 帯広空港
RJSA 青森空港
RJSS 仙台空港
RJSK 秋田空港
RJSF 福島空港
RJAH 茨城空港
RJSN 新潟空港
RJNT 富山空港
RJNK 小松飛行場
RJNS 静岡空港
RJOH 美保飛行場
RJOC 出雲空港
RJOB 岡山空港
RJOA 広島空港
RJOI 岩国飛行場
RJOT 高松空港
RJOM 松山空港
RJOK 高知空港
RJFR 北九州空港
RJFT 熊本空港
RJFU 長崎空港
RJFS 佐賀空港
RJFO 大分空港
RJFM 宮崎空港
RJFK 鹿児島空港
ROIG 石垣島空港
RJTY 横田飛行場
ROTM 普天間飛行場
RODN 嘉手納飛行場